Andover, SD

10:07 PM CST on January 24, 2015 (GMT -0600)
Aberdeen Regional | Change Station
CLOSE
Current Station
Airport
Location: Aberdeen,
Elevation: 1299 ft
Nearby Weather Stations

Elev 1299 ft 45.44 °N, 98.41 °W | Updated 14 minutes ago

Snow
Snow
33 °F
Feels Like 22 °F
N
18
Wind Variable Wind from North

Today
High -- | Low -- °F
--% Chance of Precip.
Yesterday
High -- | Low -- °F
Precip. -- in
8:01 AM 5:26 PM
Waxing Crescent, 28% visible
Pressure 29.80 in
Visibility 1.8 miles
Clouds Mostly Cloudy 600 ft
Overcast 1300 ft
Windchill 22 °F
Dew Point 30 °F
Humidity 89%
Rainfall 0.14 in
Snow Depth Not available.
UV 0 out of 12
Pollen .10 out of 12
Air Quality Not available.
Flu Activity Not available.
METAR KABR 250353Z AUTO 36016KT 1 3/4SM -SN BR BKN006 OVC013 01/M01 A2976 RMK AO2 SLP089 P0001 T00061011

More Conditions Fewer Conditions

Pressure 29.80 in
Visibility 1.8 miles
Clouds Mostly Cloudy 600 ft
Overcast 1300 ft
Windchill 22 °F
Dew Point 30 °F
Humidity 89%
Rainfall 0.14 in
Snow Depth Not available.
UV 0 out of 12
Pollen .10 out of 12
Air Quality Not available.
Flu Activity Not available.
METAR KABR 250353Z AUTO 36016KT 1 3/4SM -SN BR BKN006 OVC013 01/M01 A2976 RMK AO2 SLP089 P0001 T00061011

More Conditions Fewer Conditions

10-Day Weather Forecast

Almanac

Astronomy

Jan. 24, 2015 Rise Set
Actual Time
Civil Twilight
Nautical Twilight
Astronomical Twilight
Moon
Length of Visible Light
Length of Day
Tomorrow will be .
, % of the Moon is Illuminated

Today's Extremes

State Highs State Lows

Community

WunderPhotos

Upload Photos

1,789,833 photos uploaded!

WunderBlogs® & News

Nearby

Air Quality

  Air Quality AQ Index Pollutant
Not available.

Snow Depth

Station Depth Elevation

Earthquake Activity

City Distance Mag. Time & Date
Minimum magnitude displayed is 2.5.

Coastal Water Temperatures

Place Temperature

Nearby Weather Stations